Time;durP1;ratioP1;P1;durP2;ratioP2;P2;SDS_P1;SDS_P2;PMS_P1;PMS_P2;Temp;Humidity;BMP_temperature;BMP_pressure;BME280_temperature;BME280_humidity;BME280_pressure;Samples;Min_cycle;Max_cycle;Signal;HPM_P1;HPM_P2
2022/10/31 00:00:22;;;;;;;;;5.00;3.67;;;;;16.67;67.77;101375.06;5016275;28;45354;-60
2022/10/31 00:02:47;;;;;;;;;7.00;7.00;;;;;16.50;67.51;101363.63;5016802;28;45514;-62
2022/10/31 00:05:13;;;;;;;;;7.00;7.00;;;;;16.53;67.53;101362.53;5014591;28;45953;-63
2022/10/31 00:07:38;;;;;;;;;6.00;3.00;;;;;16.53;68.17;101357.19;5016351;28;45407;-61
2022/10/31 00:10:04;;;;;;;;;8.00;7.00;;;;;16.48;68.48;101359.34;5047081;28;45558;-59
2022/10/31 00:12:30;;;;;;;;;8.00;8.00;;;;;16.52;68.49;101383.16;5036331;28;45264;-58
2022/10/31 00:14:55;;;;;;;;;6.67;6.67;;;;;16.49;68.56;101378.03;5020697;28;45415;-59
2022/10/31 00:17:20;;;;;;;;;11.67;7.33;;;;;16.53;68.62;101389.41;5015798;28;49099;-59
2022/10/31 00:19:46;;;;;;;;;9.33;8.67;;;;;16.52;68.76;101388.53;5016806;28;45382;-58
2022/10/31 00:22:11;;;;;;;;;15.00;12.00;;;;;16.54;68.44;101385.78;5017474;28;45615;-58
2022/10/31 00:24:36;;;;;;;;;11.67;9.33;;;;;16.52;68.82;101390.38;5016378;28;46100;-59
2022/10/31 00:27:02;;;;;;;;;10.67;10.33;;;;;16.51;68.84;101386.81;5028018;28;45355;-58
2022/10/31 00:29:27;;;;;;;;;7.33;7.33;;;;;16.52;68.79;101377.81;5033984;28;45316;-57
2022/10/31 00:31:53;;;;;;;;;8.00;8.00;;;;;16.53;68.73;101375.97;5035692;28;45202;-57
2022/10/31 00:34:18;;;;;;;;;12.67;11.67;;;;;16.50;68.58;101368.13;5017898;28;48357;-58
2022/10/31 00:36:43;;;;;;;;;9.33;6.67;;;;;16.45;68.46;101368.47;5035780;28;45243;-60
2022/10/31 00:39:09;;;;;;;;;8.00;8.00;;;;;16.46;68.46;101378.22;5035808;28;45299;-57
2022/10/31 00:41:34;;;;;;;;;7.00;7.00;;;;;16.44;68.33;101380.16;5032788;28;45509;-58
2022/10/31 00:44:00;;;;;;;;;9.67;9.67;;;;;16.40;68.91;101375.09;5028950;28;45183;-59
2022/10/31 00:46:25;;;;;;;;;11.00;8.33;;;;;16.42;68.51;101384.78;5035202;28;45501;-58
2022/10/31 00:48:50;;;;;;;;;7.67;7.67;;;;;16.40;68.95;101380.47;5028844;28;45715;-59
2022/10/31 00:51:16;;;;;;;;;6.67;6.00;;;;;16.36;69.42;101376.28;5016418;28;45343;-58
2022/10/31 00:53:41;;;;;;;;;10.00;10.00;;;;;16.37;69.34;101378.00;5015583;28;45332;-57
2022/10/31 00:56:07;;;;;;;;;8.00;8.00;;;;;16.35;68.57;101369.19;5015244;28;45498;-59
2022/10/31 00:58:32;;;;;;;;;11.33;11.33;;;;;16.39;69.18;101370.69;5014859;28;45705;-59
2022/10/31 01:00:57;;;;;;;;;8.00;8.00;;;;;16.40;69.15;101373.28;5015622;28;45558;-59
2022/10/31 01:03:25;;;;;;;;;10.67;8.67;;;;;16.42;69.34;101376.72;5020875;28;46168;-58
2022/10/31 01:05:57;;;;;;;;;12.00;10.00;;;;;16.44;68.97;101380.16;5025252;28;45775;-59
2022/10/31 01:08:22;;;;;;;;;11.67;7.33;;;;;16.43;69.28;101375.75;5017757;28;45332;-58
2022/10/31 01:11:01;;;;;;;;;10.33;10.33;;;;;16.43;69.38;101367.72;5019670;28;45557;-60
2022/10/31 01:13:27;;;;;;;;;7.67;7.67;;;;;16.44;69.23;101364.06;5016463;28;46708;-57
2022/10/31 01:15:57;;;;;;;;;11.67;11.67;;;;;16.41;69.50;101348.16;5008494;28;45283;-59
2022/10/31 01:18:22;;;;;;;;;12.67;9.33;;;;;16.42;69.41;101344.53;5019692;28;45497;-59
2022/10/31 01:20:57;;;;;;;;;9.67;9.67;;;;;16.40;69.40;101335.69;5034027;28;45440;-59
2022/10/31 01:23:22;;;;;;;;;12.00;11.33;;;;;16.35;69.83;101324.41;5017527;28;45493;-60
2022/10/31 01:25:48;;;;;;;;;13.00;10.00;;;;;16.43;69.65;101335.50;5018652;28;45399;-61
2022/10/31 01:28:13;;;;;;;;;13.00;11.00;;;;;16.44;69.78;101334.53;5018926;28;46024;-59
2022/10/31 01:30:38;;;;;;;;;8.00;8.00;;;;;16.31;69.63;101308.63;5022605;28;45673;-58
2022/10/31 01:33:04;;;;;;;;;22.00;14.33;;;;;16.42;69.70;101327.56;5020408;28;45530;-59
2022/10/31 01:35:29;;;;;;;;;15.00;12.67;;;;;16.47;69.54;101331.63;5021658;28;45520;-60
2022/10/31 01:37:54;;;;;;;;;11.00;11.00;;;;;16.48;69.23;101319.06;5032575;28;45350;-59
2022/10/31 01:40:20;;;;;;;;;14.33;12.00;;;;;16.56;68.86;101319.41;5039101;28;45437;-58
2022/10/31 01:42:45;;;;;;;;;14.33;12.33;;;;;16.57;69.20;101320.25;5031710;28;46592;-58
2022/10/31 01:45:13;;;;;;;;;12.33;12.33;;;;;16.60;68.77;101325.41;5016192;28;61589;-59
2022/10/31 01:47:48;;;;;;;;;16.00;15.00;;;;;16.60;68.62;101317.34;5018024;28;45233;-59
2022/10/31 01:50:26;;;;;;;;;13.33;12.33;;;;;16.60;68.96;101306.59;5006741;28;45236;-61
2022/10/31 01:52:53;;;;;;;;;15.33;14.67;;;;;16.66;68.77;101303.47;5001361;28;46367;-61
2022/10/31 01:55:32;;;;;;;;;9.67;7.00;;;;;16.66;68.64;101287.38;5038249;28;45420;-60
2022/10/31 01:58:04;;;;;;;;;14.00;11.33;;;;;16.63;69.07;101293.81;5036158;28;45330;-59
2022/10/31 02:00:30;;;;;;;;;12.00;12.00;;;;;16.66;69.10;101298.97;5012570;28;45423;-58
2022/10/31 02:02:55;;;;;;;;;13.00;13.00;;;;;16.67;68.96;101302.53;5020864;28;45398;-59
2022/10/31 02:05:28;;;;;;;;;12.33;12.33;;;;;16.69;69.12;101303.31;5033951;28;45450;-59
2022/10/31 02:08:06;;;;;;;;;19.33;13.00;;;;;16.69;69.16;101303.31;5016819;28;45394;-58
2022/10/31 02:10:33;;;;;;;;;16.67;15.67;;;;;16.66;68.99;101298.09;5031413;28;45517;-58
2022/10/31 02:13:02;;;;;;;;;16.67;14.33;;;;;16.73;69.00;101304.81;5037296;28;46231;-58
2022/10/31 02:15:30;;;;;;;;;16.67;14.00;;;;;16.74;68.82;101304.69;5036398;28;45387;-59
2022/10/31 02:17:56;;;;;;;;;20.00;18.33;;;;;16.73;69.43;101299.44;5036375;28;45465;-58
2022/10/31 02:20:25;;;;;;;;;15.00;14.00;;;;;16.73;69.62;101302.13;5053595;28;45497;-58
2022/10/31 02:23:35;;;;;;;;;19.33;15.00;;;;;16.73;69.74;101291.38;5026999;28;46545;-59
2022/10/31 02:26:31;;;;;;;;;18.33;14.67;;;;;16.69;69.99;101285.38;5011806;28;45515;-59
2022/10/31 02:29:28;;;;;;;;;19.67;16.00;;;;;16.69;70.42;101279.16;4996932;28;45441;-58
2022/10/31 02:32:06;;;;;;;;;17.33;17.00;;;;;16.69;70.31;101282.69;5017397;28;45296;-56
2022/10/31 02:34:48;;;;;;;;;18.33;15.33;;;;;16.64;70.23;101281.25;5021171;28;45398;-60
2022/10/31 02:37:24;;;;;;;;;20.00;16.00;;;;;16.61;70.01;101278.78;5037567;28;45291;-58
2022/10/31 02:40:05;;;;;;;;;14.67;14.67;;;;;16.64;70.06;101281.25;5037426;28;45289;-60
2022/10/31 02:43:00;;;;;;;;;18.67;17.33;;;;;16.60;70.39;101277.94;5020330;28;45415;-58
2022/10/31 02:45:44;;;;;;;;;18.67;17.00;;;;;16.60;70.46;101269.00;5036696;28;45399;-60
2022/10/31 02:48:18;;;;;;;;;18.00;18.00;;;;;16.56;70.57;101259.47;5035544;28;45345;-59
2022/10/31 02:51:00;;;;;;;;;18.00;18.00;;;;;16.52;70.38;101253.44;5026811;28;45639;-58
2022/10/31 02:53:26;;;;;;;;;21.33;19.00;;;;;16.49;70.21;101237.53;5038023;28;45328;-58
2022/10/31 02:56:10;;;;;;;;;21.33;19.33;;;;;16.64;70.20;101265.13;5034595;28;46882;-59
2022/10/31 02:58:40;;;;;;;;;23.00;20.00;;;;;16.65;69.85;101256.97;5027252;28;45406;-58
2022/10/31 03:01:36;;;;;;;;;24.67;18.67;;;;;16.65;70.03;101261.47;5014522;28;45508;-58
2022/10/31 03:04:13;;;;;;;;;20.67;18.67;;;;;16.66;70.00;101260.50;5017191;28;45418;-59
2022/10/31 03:07:09;;;;;;;;;23.67;19.67;;;;;16.65;69.87;101259.66;5016707;28;46184;-59
2022/10/31 03:09:56;;;;;;;;;26.00;19.00;;;;;16.61;69.88;101257.31;5032166;28;45691;-57
2022/10/31 03:12:35;;;;;;;;;21.33;19.33;;;;;16.59;70.17;101256.56;5017095;28;45395;-58
2022/10/31 03:15:09;;;;;;;;;21.00;19.67;;;;;16.60;70.16;101258.28;5016472;28;45556;-59
2022/10/31 03:17:45;;;;;;;;;19.67;19.00;;;;;16.59;70.24;101249.34;5033428;28;46420;-57
2022/10/31 03:20:10;;;;;;;;;22.33;20.00;;;;;16.45;70.16;101220.81;5036971;28;45449;-58
2022/10/31 03:22:40;;;;;;;;;24.00;24.00;;;;;16.58;70.24;101252.16;5036445;28;45303;-59
2022/10/31 03:25:07;;;;;;;;;16.67;16.00;;;;;16.58;70.36;101257.53;5036511;28;45240;-59
2022/10/31 03:27:35;;;;;;;;;24.33;21.00;;;;;16.53;70.39;101250.63;5035994;28;45348;-58
2022/10/31 03:30:04;;;;;;;;;23.33;19.33;;;;;16.49;70.82;101243.78;5032264;28;45559;-59
2022/10/31 03:32:44;;;;;;;;;20.33;18.33;;;;;16.47;70.52;101240.34;5015970;28;45403;-59
2022/10/31 03:35:14;;;;;;;;;24.67;24.33;;;;;16.53;70.52;101242.56;5036570;28;45434;-57
2022/10/31 03:37:41;;;;;;;;;23.00;21.67;;;;;16.52;70.74;101227.44;5031265;28;45289;-59
2022/10/31 03:40:12;;;;;;;;;22.67;20.33;;;;;16.52;70.39;101230.13;5016337;28;45365;-58
2022/10/31 03:42:43;;;;;;;;;24.00;22.33;;;;;16.47;70.27;101220.69;5016503;28;45420;-60
2022/10/31 03:45:15;;;;;;;;;25.33;21.33;;;;;16.55;70.51;101230.91;5016916;28;45522;-58
2022/10/31 03:47:42;;;;;;;;;23.00;21.00;;;;;16.52;70.71;101224.75;5017860;28;45482;-59
2022/10/31 03:50:10;;;;;;;;;23.33;18.33;;;;;16.45;70.65;101209.19;5017009;28;45380;-58
2022/10/31 03:52:43;;;;;;;;;23.00;23.00;;;;;16.48;70.89;101214.34;5032104;28;45362;-58
2022/10/31 03:55:24;;;;;;;;;25.33;22.67;;;;;16.48;71.01;101217.03;5038720;28;45405;-59
2022/10/31 03:58:21;;;;;;;;;27.67;25.00;;;;;16.46;71.17;101211.78;4997262;28;45393;-60
2022/10/31 04:00:51;;;;;;;;;23.67;23.67;;;;;16.47;71.23;101208.13;5009481;28;45539;-58
2022/10/31 04:03:23;;;;;;;;;24.67;24.00;;;;;16.47;71.46;101209.94;5015026;28;45415;-57
2022/10/31 04:05:53;;;;;;;;;16.00;16.00;;;;;16.39;71.46;101205.09;5016063;28;45489;-58
2022/10/31 04:08:24;;;;;;;;;22.67;21.67;;;;;16.40;71.71;101201.44;5035372;28;46370;-59
2022/10/31 04:10:52;;;;;;;;;26.33;20.33;;;;;16.46;71.60;101213.59;5036016;28;45458;-58
2022/10/31 04:13:24;;;;;;;;;25.67;23.67;;;;;16.45;71.66;101210.06;5051227;28;45423;-60
2022/10/31 04:15:53;;;;;;;;;24.33;22.00;;;;;16.44;71.56;101197.59;5036416;28;45470;-60
2022/10/31 04:18:19;;;;;;;;;21.00;19.00;;;;;16.45;71.59;101204.69;5046814;28;47611;-59
2022/10/31 04:20:48;;;;;;;;;22.33;20.00;;;;;16.39;71.72;101189.00;5015092;28;45227;-59
2022/10/31 04:23:20;;;;;;;;;18.33;18.33;;;;;16.44;71.42;101202.97;5016072;28;46077;-59
2022/10/31 04:25:45;;;;;;;;;25.00;19.67;;;;;16.49;71.71;101213.38;5016221;28;45481;-58
2022/10/31 04:28:10;;;;;;;;;22.33;21.33;;;;;16.45;71.46;101198.47;5016762;28;46114;-59
2022/10/31 04:30:36;;;;;;;;;21.33;21.33;;;;;16.50;71.69;101207.91;5015746;28;45241;-58
2022/10/31 04:33:01;;;;;;;;;18.67;18.67;;;;;16.51;71.34;101203.38;5016131;28;45245;-57
2022/10/31 04:35:27;;;;;;;;;23.67;19.67;;;;;16.46;71.66;101200.19;4997340;28;45443;-58
2022/10/31 04:37:52;;;;;;;;;24.00;21.67;;;;;16.44;71.70;101197.59;5014973;28;45540;-59
2022/10/31 04:40:17;;;;;;;;;24.67;23.33;;;;;16.47;71.64;101207.25;5024481;28;45442;-59
2022/10/31 04:42:43;;;;;;;;;20.67;19.33;;;;;16.48;71.37;101193.72;5038532;28;45441;-56
2022/10/31 04:45:08;;;;;;;;;22.67;22.67;;;;;16.45;71.48;101195.78;5039779;28;45418;-59
2022/10/31 04:47:34;;;;;;;;;23.33;22.67;;;;;16.44;71.61;101186.00;5039277;28;45363;-58
2022/10/31 04:50:00;;;;;;;;;23.33;19.00;;;;;16.47;71.67;101188.47;5039370;28;45314;-58
2022/10/31 04:52:26;;;;;;;;;21.67;20.33;;;;;16.44;71.65;101178.81;5051480;28;46098;-59
2022/10/31 04:54:51;;;;;;;;;27.33;21.00;;;;;16.42;71.83;101171.84;5039396;28;45495;-57
2022/10/31 04:57:16;;;;;;;;;21.67;21.67;;;;;16.31;72.09;101164.53;5027320;28;46224;-58
2022/10/31 04:59:42;;;;;;;;;17.67;15.67;;;;;16.32;72.15;101166.25;5016593;28;45532;-59
2022/10/31 05:02:07;;;;;;;;;19.67;17.00;;;;;16.26;71.81;101161.31;5016795;28;45507;-58
2022/10/31 05:04:32;;;;;;;;;15.33;15.33;;;;;16.26;72.10;101147.88;5018391;28;45516;-59
2022/10/31 05:06:58;;;;;;;;;23.67;21.00;;;;;16.26;71.90;101153.25;5017885;28;59963;-60
2022/10/31 05:09:23;;;;;;;;;24.67;20.00;;;;;16.23;72.61;101145.44;5017692;28;45526;-60
2022/10/31 05:11:48;;;;;;;;;19.00;15.67;;;;;16.21;72.12;101160.78;5019042;28;45383;-59
2022/10/31 05:14:14;;;;;;;;;18.33;18.33;;;;;16.22;72.43;101154.44;5019117;28;45510;-60
2022/10/31 05:16:39;;;;;;;;;15.67;15.67;;;;;16.15;72.40;101148.69;5024722;28;49682;-60
2022/10/31 05:19:04;;;;;;;;;18.67;16.00;;;;;16.26;72.10;101155.09;5017525;28;45304;-59
2022/10/31 05:21:30;;;;;;;;;20.33;20.33;;;;;16.24;72.61;101144.47;5019469;28;45466;-58
2022/10/31 05:23:55;;;;;;;;;22.67;19.67;;;;;16.23;72.24;101137.38;5018611;28;45195;-59
2022/10/31 05:26:20;;;;;;;;;17.33;16.00;;;;;16.26;72.24;101145.22;5018685;28;45991;-58
2022/10/31 05:28:46;;;;;;;;;18.33;15.00;;;;;16.26;72.19;101131.78;5018890;28;45350;-60
2022/10/31 05:31:12;;;;;;;;;22.33;17.33;;;;;16.26;72.21;101123.75;5018725;28;45459;-60
2022/10/31 05:33:37;;;;;;;;;15.67;13.33;;;;;16.21;72.28;101116.03;5036514;28;45506;-65
2022/10/31 05:36:03;;;;;;;;;22.33;16.67;;;;;16.15;72.51;101111.09;5026699;28;46027;-59
2022/10/31 05:38:29;;;;;;;;;18.00;17.67;;;;;16.15;72.88;101115.63;5018588;28;45345;-58
2022/10/31 05:40:57;;;;;;;;;15.67;15.00;;;;;16.14;73.30;101121.91;5019967;28;45504;-61
2022/10/31 05:43:23;;;;;;;;;14.00;14.00;;;;;16.13;73.35;101133.63;5019779;28;45650;-61
2022/10/31 05:45:52;;;;;;;;;19.33;16.33;;;;;16.10;73.13;101126.66;5021501;28;45480;-59
2022/10/31 05:48:18;;;;;;;;;14.67;13.67;;;;;16.07;73.15;101112.59;5017874;28;45451;-59
2022/10/31 05:50:43;;;;;;;;;20.33;18.67;;;;;16.10;72.83;101117.75;5035641;28;51888;-60
2022/10/31 05:53:09;;;;;;;;;14.67;14.67;;;;;16.07;73.08;101112.59;5038335;28;45574;-58
2022/10/31 05:55:34;;;;;;;;;22.33;21.00;;;;;16.13;72.79;101122.88;5018244;28;45859;-60
2022/10/31 05:58:00;;;;;;;;;20.33;17.33;;;;;16.13;73.20;101114.84;5018454;28;45364;-59
2022/10/31 06:00:26;;;;;;;;;21.67;19.33;;;;;16.11;72.96;101119.47;5016984;28;45479;-60
2022/10/31 06:03:03;;;;;;;;;17.67;14.33;;;;;16.15;72.83;101118.31;5017023;28;45686;-59
2022/10/31 06:05:30;;;;;;;;;16.33;16.33;;;;;16.15;72.77;101110.25;5017398;28;45398;-58
2022/10/31 06:07:56;;;;;;;;;19.33;14.00;;;;;16.17;72.79;101102.94;5017194;28;45238;-59
2022/10/31 06:10:21;;;;;;;;;20.67;20.00;;;;;16.20;72.63;101097.34;5018096;28;45173;-58
2022/10/31 06:12:48;;;;;;;;;14.33;14.00;;;;;16.19;72.65;101104.53;5018096;28;45544;-60
2022/10/31 06:15:14;;;;;;;;;20.33;20.33;;;;;16.14;72.42;101093.25;5017784;28;46179;-58
2022/10/31 06:17:39;;;;;;;;;17.33;15.67;;;;;16.19;72.38;101090.28;5022852;28;45526;-58
2022/10/31 06:20:06;;;;;;;;;14.00;12.00;;;;;16.20;72.25;101091.97;5022935;28;47029;-59
2022/10/31 06:22:31;;;;;;;;;16.00;14.67;;;;;16.19;71.96;101085.75;5027947;28;45481;-65
2022/10/31 06:24:56;;;;;;;;;13.67;12.33;;;;;16.23;71.65;101087.25;5017181;28;47474;-59
2022/10/31 06:27:25;;;;;;;;;15.67;13.00;;;;;16.24;71.07;101082.75;5016938;28;45273;-59
2022/10/31 06:29:51;;;;;;;;;20.33;15.67;;;;;16.25;71.14;101084.44;5017629;28;45395;-64
2022/10/31 06:32:17;;;;;;;;;13.67;12.33;;;;;16.25;71.28;101072.84;5018583;28;45423;-59
2022/10/31 06:34:42;;;;;;;;;14.67;13.00;;;;;16.29;71.35;101096.69;5033312;28;46340;-59
2022/10/31 06:37:09;;;;;;;;;11.00;11.00;;;;;16.31;70.81;101094.75;5019381;28;45438;-59
2022/10/31 06:39:35;;;;;;;;;15.33;11.67;;;;;16.31;70.97;101083.16;5021173;28;45526;-59
2022/10/31 06:42:01;;;;;;;;;14.33;12.67;;;;;16.36;71.03;101087.22;5016631;28;45267;-60
2022/10/31 06:44:26;;;;;;;;;13.00;13.00;;;;;16.35;70.94;101081.97;5017739;28;45552;-59
2022/10/31 06:46:51;;;;;;;;;10.67;8.67;;;;;16.35;70.70;101082.81;5036129;28;45417;-58
2022/10/31 06:49:17;;;;;;;;;12.67;9.67;;;;;16.32;70.76;101074.16;5018005;28;45441;-58
2022/10/31 06:51:42;;;;;;;;;12.33;11.00;;;;;16.31;70.74;101072.44;5018122;28;45461;-58
2022/10/31 06:54:08;;;;;;;;;14.00;13.33;;;;;16.14;70.96;101052.16;5014377;28;46044;-58
2022/10/31 06:56:33;;;;;;;;;14.67;14.00;;;;;16.35;70.92;101080.13;5025759;28;45391;-60
2022/10/31 06:58:59;;;;;;;;;12.67;11.67;;;;;16.34;71.18;101075.75;5016003;28;45304;-59
2022/10/31 07:01:24;;;;;;;;;12.00;10.00;;;;;16.27;71.41;101074.47;5016598;28;45590;-60
2022/10/31 07:03:49;;;;;;;;;14.00;12.33;;;;;16.35;71.17;101073.91;5018064;28;46097;-61
2022/10/31 07:06:15;;;;;;;;;12.33;12.00;;;;;16.31;71.24;101067.91;5030298;28;45518;-59
2022/10/31 07:08:40;;;;;;;;;15.00;12.33;;;;;16.30;71.66;101060.84;5036962;28;45220;-60
2022/10/31 07:11:06;;;;;;;;;17.67;15.67;;;;;16.33;71.83;101065.97;5036009;28;45625;-60
2022/10/31 07:13:32;;;;;;;;;13.33;12.00;;;;;16.39;71.66;101070.03;5027608;28;45470;-59
2022/10/31 07:16:03;;;;;;;;;16.00;14.00;;;;;16.42;71.72;101070.69;4998365;28;45492;-60
2022/10/31 07:18:29;;;;;;;;;11.67;11.67;;;;;16.39;71.70;101068.19;4997433;28;45267;-59
2022/10/31 07:20:54;;;;;;;;;17.67;15.33;;;;;16.34;71.80;101056.94;4997039;28;45232;-60
2022/10/31 07:23:20;;;;;;;;;17.00;15.00;;;;;16.45;71.77;101069.59;5011333;28;45473;-60
2022/10/31 07:25:46;;;;;;;;;17.67;15.00;;;;;16.47;71.59;101068.50;5015892;28;45703;-59
2022/10/31 07:28:11;;;;;;;;;20.67;19.33;;;;;16.47;71.81;101057.78;5018383;28;45603;-58
2022/10/31 07:30:38;;;;;;;;;16.00;15.00;;;;;16.51;71.72;101067.31;5023867;28;45385;-60
2022/10/31 07:33:04;;;;;;;;;15.67;12.67;;;;;16.49;71.64;101061.19;5031134;28;45428;-58
2022/10/31 07:35:30;;;;;;;;;19.00;16.67;;;;;16.53;71.85;101051.09;5008910;28;45442;-59
2022/10/31 07:37:56;;;;;;;;;14.67;14.00;;;;;16.53;71.64;101060.00;5016943;28;45446;-63
2022/10/31 07:40:22;;;;;;;;;15.00;13.67;;;;;16.57;71.47;101057.09;5017295;28;45326;-59
2022/10/31 07:42:50;;;;;;;;;16.33;15.67;;;;;16.58;71.47;101062.38;5015602;28;45508;-60
2022/10/31 07:45:18;;;;;;;;;15.00;15.00;;;;;16.64;71.30;101067.25;5016232;28;45312;-60
2022/10/31 07:47:46;;;;;;;;;18.00;18.00;;;;;16.58;71.55;101062.38;5019683;28;45536;-59
2022/10/31 07:50:17;;;;;;;;;16.00;15.67;;;;;16.62;71.64;101065.66;5016903;28;45521;-60
2022/10/31 07:52:42;;;;;;;;;16.33;15.00;;;;;16.64;71.43;101074.47;5016090;28;45345;-60
2022/10/31 07:55:08;;;;;;;;;20.33;15.00;;;;;16.63;71.26;101065.56;5016133;28;45611;-59
2022/10/31 07:57:34;;;;;;;;;19.33;15.33;;;;;16.62;71.43;101060.28;5050306;27;45367;-60
2022/10/31 08:00:00;;;;;;;;;17.67;17.67;;;;;16.61;71.63;101063.94;5029988;28;45656;-64
2022/10/31 08:02:25;;;;;;;;;15.00;14.33;;;;;16.60;71.39;101056.88;5027247;28;46260;-60
2022/10/31 08:04:51;;;;;;;;;16.67;14.67;;;;;16.55;71.66;101059.91;5022054;28;45563;-59
2022/10/31 08:07:17;;;;;;;;;14.67;14.33;;;;;16.54;71.98;101058.19;5031696;28;45389;-58
2022/10/31 08:09:42;;;;;;;;;17.00;14.67;;;;;16.55;71.72;101051.00;5015921;28;45561;-58
2022/10/31 08:12:08;;;;;;;;;18.00;16.33;;;;;16.58;71.96;101061.50;5014667;28;45975;-59
2022/10/31 08:14:33;;;;;;;;;21.00;21.00;;;;;16.60;71.89;101051.50;5013136;28;47489;-59
2022/10/31 08:16:58;;;;;;;;;13.33;13.33;;;;;16.64;71.75;101052.97;5004628;28;45408;-59
2022/10/31 08:19:24;;;;;;;;;16.67;16.67;;;;;16.62;71.57;101046.88;5020181;28;45539;-58
2022/10/31 08:21:54;;;;;;;;;23.67;19.00;;;;;16.68;71.51;101051.84;5017861;28;46143;-59
2022/10/31 08:24:20;;;;;;;;;23.67;22.33;;;;;16.70;71.41;101052.56;5015888;28;45494;-58
2022/10/31 08:26:46;;;;;;;;;28.00;24.67;;;;;16.72;71.19;101051.47;5014318;28;45365;-61
2022/10/31 08:29:11;;;;;;;;;17.33;17.33;;;;;16.74;71.30;101046.84;5031645;28;45359;-59
2022/10/31 08:31:36;;;;;;;;;27.67;24.00;;;;;16.78;71.14;101044.78;5015369;28;45403;-60
2022/10/31 08:34:02;;;;;;;;;22.00;20.67;;;;;16.78;71.33;101031.34;5014282;28;45893;-59
2022/10/31 08:36:28;;;;;;;;;24.67;21.33;;;;;16.74;71.38;101022.69;5030359;28;45256;-60
2022/10/31 08:38:54;;;;;;;;;22.33;18.33;;;;;16.75;71.57;101018.16;5035986;28;45609;-59
2022/10/31 08:41:20;;;;;;;;;20.67;16.67;;;;;16.80;71.33;101011.50;5050748;28;47190;-60
2022/10/31 08:43:45;;;;;;;;;20.67;18.67;;;;;16.80;71.46;101010.63;5034097;28;45581;-59
2022/10/31 08:46:11;;;;;;;;;22.33;16.67;;;;;16.83;71.48;101010.41;5034858;28;45379;-59
2022/10/31 08:48:37;;;;;;;;;24.00;19.00;;;;;16.79;71.46;101003.53;5035848;28;45338;-60
2022/10/31 08:51:03;;;;;;;;;21.00;21.00;;;;;16.75;71.60;100994.84;5033849;28;45251;-59
2022/10/31 08:53:29;;;;;;;;;23.67;21.00;;;;;16.79;71.62;100995.47;5035473;28;45685;-59
2022/10/31 08:55:56;;;;;;;;;19.67;18.67;;;;;16.71;71.90;100989.84;5035386;28;45357;-59
2022/10/31 08:58:22;;;;;;;;;25.00;19.00;;;;;16.77;71.86;100984.84;5036115;28;45390;-59
2022/10/31 09:00:50;;;;;;;;;25.33;22.67;;;;;16.83;71.86;100966.56;5019022;28;45315;-59
2022/10/31 09:03:22;;;;;;;;;30.67;22.67;;;;;16.89;71.68;100971.44;5016648;28;45310;-59
2022/10/31 09:05:48;;;;;;;;;24.00;20.00;;;;;16.93;71.33;100956.84;5016504;28;45316;-59
2022/10/31 09:08:14;;;;;;;;;18.33;18.33;;;;;17.05;71.07;100955.84;5016582;28;45363;-60
2022/10/31 09:10:40;;;;;;;;;25.33;23.33;;;;;17.10;70.97;100959.91;5029586;28;45482;-59
2022/10/31 09:13:09;;;;;;;;;24.67;24.67;;;;;17.17;71.04;100962.13;5015442;28;45339;-59
2022/10/31 09:15:38;;;;;;;;;25.67;24.00;;;;;17.21;70.73;100944.78;5015485;28;45477;-58
2022/10/31 09:18:03;;;;;;;;;24.00;21.00;;;;;17.22;70.44;100939.28;5015453;28;45534;-60
2022/10/31 09:20:31;;;;;;;;;26.33;24.00;;;;;17.20;70.52;100935.03;5014737;28;46134;-59
2022/10/31 09:22:58;;;;;;;;;22.00;19.33;;;;;17.16;70.81;100925.47;5014760;28;45399;-61
2022/10/31 09:25:24;;;;;;;;;19.33;16.67;;;;;17.11;70.79;100920.47;5032330;28;45533;-60
2022/10/31 09:27:49;;;;;;;;;27.00;25.33;;;;;17.22;70.62;100930.38;5047190;28;45515;-58
2022/10/31 09:30:15;;;;;;;;;27.00;23.00;;;;;17.30;70.50;100930.63;5038599;28;46103;-58
2022/10/31 09:32:40;;;;;;;;;24.33;22.33;;;;;17.39;70.25;100921.81;5038848;28;45402;-60
2022/10/31 09:35:06;;;;;;;;;28.33;23.00;;;;;17.48;69.85;100912.19;5039462;28;45397;-59
2022/10/31 09:37:31;;;;;;;;;21.67;20.67;;;;;17.49;69.73;100901.31;5038239;28;45285;-58
2022/10/31 09:39:57;;;;;;;;;25.67;20.67;;;;;17.49;69.74;100909.38;5039306;28;46143;-60
2022/10/31 09:42:59;;;;;;;;;22.33;22.33;;;;;17.55;69.53;100911.56;5037643;28;45367;-59
2022/10/31 09:45:37;;;;;;;;;18.00;16.33;;;;;17.58;69.39;100913.16;5037319;28;45442;-60
2022/10/31 09:48:39;;;;;;;;;24.00;20.00;;;;;17.77;69.23;100904.50;5039252;28;45410;-60
2022/10/31 09:51:10;;;;;;;;;25.67;21.00;;;;;17.86;68.68;100877.69;5037938;28;46138;-59
2022/10/31 09:53:50;;;;;;;;;18.67;16.67;;;;;17.92;68.66;100879.00;5038672;28;45316;-58
2022/10/31 09:56:20;;;;;;;;;24.00;23.33;;;;;18.03;68.16;100884.38;5039061;28;45340;-60
2022/10/31 09:58:50;;;;;;;;;28.33;25.00;;;;;18.02;67.91;100871.91;5033586;28;45303;-59
2022/10/31 10:01:27;;;;;;;;;19.00;19.00;;;;;18.14;67.67;100881.66;4998312;28;46214;-59
2022/10/31 10:03:59;;;;;;;;;21.00;18.33;;;;;18.18;67.51;100885.78;4998097;28;45341;-58
2022/10/31 10:06:29;;;;;;;;;21.33;19.33;;;;;18.13;67.21;100874.56;5013769;28;45365;-59
2022/10/31 10:08:56;;;;;;;;;23.00;20.00;;;;;18.21;66.85;100885.53;4998181;28;45268;-59
2022/10/31 10:11:41;;;;;;;;;24.00;22.00;;;;;18.22;66.94;100868.38;4996772;28;45276;-60
2022/10/31 10:14:21;;;;;;;;;21.00;21.00;;;;;18.24;67.00;100869.16;4997823;28;45376;-61
2022/10/31 10:17:10;;;;;;;;;21.00;18.00;;;;;18.36;66.76;100863.69;5001761;28;45399;-63
2022/10/31 10:19:58;;;;;;;;;25.67;23.67;;;;;18.47;66.65;100850.16;5015972;28;45435;-59
2022/10/31 10:22:50;;;;;;;;;20.67;19.33;;;;;18.58;66.54;100834.81;5017351;28;45394;-58
2022/10/31 10:25:28;;;;;;;;;20.67;18.00;;;;;18.65;65.65;100826.25;5017484;28;45308;-62
2022/10/31 10:28:37;;;;;;;;;20.67;18.67;;;;;18.58;65.39;100820.47;5017401;28;45430;-59
2022/10/31 10:31:27;;;;;;;;;21.00;19.67;;;;;18.64;65.35;100825.41;5030486;28;45582;-59
2022/10/31 10:34:13;;;;;;;;;23.67;19.67;;;;;18.70;65.16;100819.47;5013785;28;46443;-60
2022/10/31 10:36:44;;;;;;;;;20.00;18.00;;;;;18.77;65.02;100815.25;5015035;28;45293;-61
2022/10/31 10:39:19;;;;;;;;;22.00;20.33;;;;;18.78;64.84;100806.19;5016392;28;45325;-59
2022/10/31 10:47:40;;;;;;;;;19.67;18.67;;;;;19.10;64.01;100799.81;5028670;28;45436;-61
2022/10/31 10:50:20;;;;;;;;;17.00;15.00;;;;;19.21;63.88;100779.97;5036531;28;45781;-61
2022/10/31 10:52:59;;;;;;;;;21.00;17.67;;;;;19.37;63.16;100786.56;5037751;28;45528;-63
2022/10/31 10:55:30;;;;;;;;;16.33;12.67;;;;;19.50;62.48;100775.50;5037226;28;45463;-61
2022/10/31 10:58:02;;;;;;;;;22.67;20.67;;;;;19.75;61.28;100757.97;5032087;28;46714;-61
2022/10/31 11:00:46;;;;;;;;;18.67;16.00;;;;;20.07;60.80;100732.56;5016198;28;45343;-60
2022/10/31 11:03:12;;;;;;;;;21.67;18.00;;;;;20.43;59.75;100726.38;5026820;28;45822;-62
2022/10/31 11:05:51;;;;;;;;;22.67;20.33;;;;;20.59;58.56;100715.84;5017100;28;46036;-62
2022/10/31 11:08:32;;;;;;;;;20.00;18.33;;;;;20.71;58.75;100699.44;5031345;28;45370;-60
2022/10/31 11:11:14;;;;;;;;;20.33;19.33;;;;;20.81;58.32;100692.13;5026121;28;45523;-61
2022/10/31 11:13:41;;;;;;;;;21.67;16.00;;;;;20.79;58.49;100686.03;5033884;28;45487;-63
2022/10/31 11:16:28;;;;;;;;;27.33;20.33;;;;;20.82;58.08;100691.13;5013608;28;46553;-64
2022/10/31 11:19:07;;;;;;;;;31.00;19.00;;;;;20.75;58.44;100681.91;5004761;28;45441;-59
2022/10/31 11:21:34;;;;;;;;;21.00;16.67;;;;;20.78;58.47;100685.16;5015456;28;45448;-61
2022/10/31 11:24:03;;;;;;;;;17.33;16.00;;;;;20.87;57.56;100691.53;5030748;28;45425;-60
2022/10/31 11:26:28;;;;;;;;;12.00;12.00;;;;;20.83;56.85;100700.94;5015733;28;47620;-63
2022/10/31 11:28:58;;;;;;;;;17.67;15.00;;;;;20.84;56.48;100717.03;5017999;28;45392;-62